Observations for SOUTHEND-ON-SEA, United Kingdom (EGMC)

EGMC 190320Z 19012KT CAVOK 18/14 Q1012  
EGMC 190250Z 20011KT CAVOK 17/14 Q1012  
EGMC 190120Z 20011KT CAVOK 18/14 Q1012  
EGMC 190050Z 20011KT CAVOK 17/14 Q1012  
EGMC 190020Z 20010KT CAVOK 17/14 Q1012  
EGMC 182350Z 20010KT CAVOK 17/14 Q1012  
EGMC 182320Z 19010KT CAVOK 17/14 Q1012  
EGMC 182250Z 20011KT CAVOK 17/14 Q1012  
EGMC 182220Z 22011KT CAVOK 17/14 Q1012  
EGMC 182150Z 21013KT CAVOK 17/14 Q1012  
EGMC 182120Z 21014KT CAVOK 17/14 Q1012  
EGMC 182050Z 21013KT CAVOK 17/14 Q1012  
EGMC 182020Z 21014KT CAVOK 19/15 Q1012  
EGMC 181950Z 21012KT 9999 FEW037 16/12 Q1012
EGMC 181920Z 20013KT 9999 FEW037 18/14 Q1012
EGMC 181850Z 21013KT 9999 FEW020 19/15 Q1012
EGMC 181820Z 21014KT 9999 FEW020 20/15 Q1011
EGMC 181750Z 21015KT 9999 FEW030 19/14 Q1011
EGMC 181720Z 22018KT 9999 FEW040 20/13 Q1011
EGMC 181650Z 23017KT 9999 FEW016 20/14 Q1011
EGMC 181620Z 23020KT 9999 FEW040 21/14 Q1011
EGMC 181550Z 23022KT 9999 FEW033 22/14 Q1011
EGMC 181520Z 21018KT 9999 SCT043 21/13 Q1010
EGMC 181450Z 22018KT 9999 FEW042 22/14 Q1010
EGMC 181420Z 22019KT 9999 FEW037 23/15 Q1010
EGMC 181350Z 23020KT 9999 FEW037 21/12 Q1010
EGMC 181320Z 23019KT 9999 FEW038 21/12 Q1010
EGMC 181250Z 23019KT 9999 FEW034 22/13 Q1009
EGMC 181220Z 23021KT 9999 FEW036 21/12 Q1009
EGMC 181150Z 23023KT 9999 FEW030 21/12 Q1008
EGMC 181120Z 23021KT 9999 FEW030 21/12 Q1008
EGMC 181050Z 23025KT 9999 FEW027 21/12 Q1008
EGMC 181020Z 23022G32KT 9999 FEW023 SCT027 20/14 Q1007  
EGMC 180950Z 22020KT 9999 BKN018 20/15 Q1007
EGMC 180920Z 22020KT 9999 BKN017 19/14 Q1007
EGMC 180850Z 21019KT 9999 BKN018 20/16 Q1007
EGMC 180820Z 22022KT 9999 BKN019 19/14 Q1007
EGMC 180750Z 22019G31KT 9999 BKN020 19/14 Q1006 
EGMC 180720Z 21020KT 9999 BKN023 19/14 Q1006
EGMC 180650Z 21021G32KT 9999 BKN024 19/13 Q1006 
EGMC 180620Z 21015KT 9999 SCT017 BKN021 19/15 Q1006 
EGMC 180550Z 21018KT 9999 BKN020 19/15 Q1006
EGMC 180520Z 20015KT 9999 BKN020 18/14 Q1005
EGMC 180450Z 20014KT 9999 FEW021 BKN026 19/15 Q1005 
EGMC 180420Z 21014KT 9999 FEW023 18/15 Q1005
EGMC 180350Z 20013KT 9999 FEW023 18/14 Q1005
EGMC 180250Z 21015KT CAVOK 18/14 Q1006